Time;durP1;ratioP1;P1;durP2;ratioP2;P2;SDS_P1;SDS_P2;PMS_P1;PMS_P2;Temp;Humidity;BMP_temperature;BMP_pressure;BME280_temperature;BME280_humidity;BME280_pressure;Samples;Min_cycle;Max_cycle;Signal;HPM_P1;HPM_P2
2021/11/07 00:01:37;;;;;;;18.02;11.01;;;;;;;4.42;92.97;100193.63;2321708;66;24840;-78
2021/11/07 00:11:38;;;;;;;15.54;10.64;;;;;;;4.24;92.72;100161.34;2327790;68;20957;-78
2021/11/07 00:14:46;;;;;;;16.38;10.76;;;;;;;4.17;92.52;100154.28;2328991;68;20656;-78
2021/11/07 00:17:53;;;;;;;16.41;10.43;;;;;;;4.07;92.63;100147.06;2325557;66;22161;-79
2021/11/07 00:21:20;;;;;;;19.86;10.49;;;;;;;4.04;92.84;100143.53;2323498;68;20159;-78
2021/11/07 00:24:31;;;;;;;17.61;10.84;;;;;;;3.99;92.96;100152.78;2326417;68;20299;-78
2021/11/07 00:27:41;;;;;;;16.80;10.98;;;;;;;3.97;93.18;100154.44;2328117;68;20291;-78
2021/11/07 00:31:03;;;;;;;18.76;10.57;;;;;;;3.97;93.46;100151.84;2326348;66;31081;-79
2021/11/07 00:37:23;;;;;;;16.03;10.66;;;;;;;3.99;93.47;100137.38;2326691;68;20858;-78
2021/11/07 00:43:39;;;;;;;17.10;10.76;;;;;;;3.92;93.38;100142.28;2327892;68;20352;-78
2021/11/07 00:46:52;;;;;;;15.49;9.70;;;;;;;3.90;93.40;100132.75;2325826;66;20307;-78
2021/11/07 00:50:02;;;;;;;22.09;10.93;;;;;;;3.89;93.31;100131.03;2328072;68;20275;-77
2021/11/07 00:56:29;;;;;;;19.64;9.89;;;;;;;3.80;93.25;100115.31;2326361;68;20316;-78
2021/11/07 00:59:37;;;;;;;14.81;9.80;;;;;;;3.78;93.29;100109.25;2312727;68;20674;-78
2021/11/07 01:02:41;;;;;;;15.76;10.04;;;;;;;3.76;93.29;100096.31;2325185;66;23011;-78
2021/11/07 01:05:44;;;;;;;14.93;9.40;;;;;;;3.68;93.00;100097.78;2326280;68;20320;-78
2021/11/07 01:08:48;;;;;;;14.56;9.45;;;;;;;3.62;92.90;100095.88;2326604;68;20301;-78
2021/11/07 01:11:51;;;;;;;14.91;9.57;;;;;;;3.56;92.86;100093.09;2326934;68;20345;-77
2021/11/07 01:14:56;;;;;;;13.38;8.96;;;;;;;3.50;92.71;100092.00;2326628;68;20393;-77
2021/11/07 01:18:00;;;;;;;17.40;9.75;;;;;;;3.47;92.65;100099.59;2325431;66;22230;-78
2021/11/07 01:21:03;;;;;;;12.94;9.11;;;;;;;3.45;92.57;100089.28;2326619;68;20751;-78
2021/11/07 01:24:13;;;;;;;13.66;8.43;;;;;;;3.41;92.53;100076.28;2326902;68;20356;-78
2021/11/07 01:27:27;;;;;;;15.10;8.77;;;;;;;3.39;92.40;100075.34;2326634;68;20299;-78
2021/11/07 01:30:37;;;;;;;14.70;9.24;;;;;;;3.36;92.35;100077.81;2326885;66;21565;-77
2021/11/07 01:33:40;;;;;;;18.15;9.29;;;;;;;3.32;92.61;100058.88;2329005;68;20314;-78
2021/11/07 01:37:13;;;;;;;12.93;8.88;;;;;;;3.34;92.94;100046.97;2326693;68;20351;-78
2021/11/07 01:40:14;;;;;;;15.69;9.29;;;;;;;3.32;92.93;100039.22;2326663;68;20319;-77
2021/11/07 01:43:16;;;;;;;12.09;8.79;;;;;;;3.35;93.10;100048.69;2326315;68;20315;-78
2021/11/07 01:49:33;;;;;;;13.14;7.93;;;;;;;3.37;93.22;100059.03;2326484;68;20299;-78
2021/11/07 01:52:41;;;;;;;14.91;8.38;;;;;;;3.39;93.36;100063.38;2326339;68;20331;-78
2021/11/07 01:55:44;;;;;;;12.74;7.43;;;;;;;3.41;93.57;100060.88;2328087;68;20709;-77
2021/11/07 01:58:47;;;;;;;11.77;7.81;;;;;;;3.45;93.86;100065.31;2320877;68;20299;-78
2021/11/07 02:01:53;;;;;;;11.93;7.84;;;;;;;3.49;94.16;100059.47;2325326;66;23050;-77
2021/11/07 02:04:56;;;;;;;16.14;8.00;;;;;;;3.50;94.27;100063.75;2326175;68;20413;-78
2021/11/07 02:07:59;;;;;;;13.16;8.10;;;;;;;3.52;94.22;100072.41;2328167;68;20965;-78
2021/11/07 02:11:02;;;;;;;12.64;7.69;;;;;;;3.52;94.31;100063.00;2326204;68;20344;-78
2021/11/07 02:14:05;;;;;;;11.94;7.46;;;;;;;3.54;94.39;100065.63;2327847;68;20319;-78
2021/11/07 02:17:10;;;;;;;11.09;7.39;;;;;;;3.54;94.33;100057.91;2325550;66;22219;-78
2021/11/07 02:20:21;;;;;;;9.77;6.70;;;;;;;3.56;94.35;100058.84;2327612;68;20382;-78
2021/11/07 02:23:25;;;;;;;11.99;7.61;;;;;;;3.57;94.23;100051.19;2327933;68;20387;-77
2021/11/07 02:26:28;;;;;;;12.73;7.35;;;;;;;3.62;94.17;100065.06;2327573;68;20314;-78
2021/11/07 02:29:33;;;;;;;12.04;7.38;;;;;;;3.61;94.19;100065.91;2326142;68;20305;-78
2021/11/07 02:32:36;;;;;;;11.41;7.24;;;;;;;3.68;94.34;100076.38;2326661;68;20960;-78
2021/11/07 02:35:39;;;;;;;10.50;7.28;;;;;;;3.72;94.33;100065.38;2327780;68;20355;-78
2021/11/07 02:38:43;;;;;;;12.57;7.55;;;;;;;3.74;94.27;100056.88;2327406;68;20291;-77
2021/11/07 02:41:46;;;;;;;14.29;7.78;;;;;;;3.78;94.20;100053.63;2327796;68;20762;-78
2021/11/07 02:44:49;;;;;;;13.46;8.04;;;;;;;3.78;94.08;100045.03;2327077;68;20283;-78
2021/11/07 02:47:52;;;;;;;13.49;8.01;;;;;;;3.79;94.17;100052.81;2326746;68;20328;-77
2021/11/07 02:50:54;;;;;;;12.79;7.80;;;;;;;3.80;94.25;100059.69;2327631;68;20398;-78
2021/11/07 02:54:01;;;;;;;11.68;7.86;;;;;;;3.82;94.06;100059.72;2327906;68;20291;-77
2021/11/07 02:57:07;;;;;;;12.98;8.52;;;;;;;3.79;93.91;100039.09;2327441;68;20793;-78
2021/11/07 03:00:10;;;;;;;14.48;9.05;;;;;;;3.79;94.04;100039.09;2327218;68;21013;-78
2021/11/07 03:03:13;;;;;;;13.46;8.50;;;;;;;3.81;94.08;100040.88;2328852;68;20344;-78
2021/11/07 03:06:16;;;;;;;15.06;8.56;;;;;;;3.82;94.12;100032.34;2328969;68;20291;-78
2021/11/07 03:09:28;;;;;;;14.73;8.88;;;;;;;3.85;94.25;100029.00;2324670;68;20367;-78
2021/11/07 03:12:32;;;;;;;15.88;8.60;;;;;;;3.85;94.17;100023.88;2327847;68;20877;-78
2021/11/07 03:15:35;;;;;;;16.08;8.02;;;;;;;3.84;94.27;100024.69;2329236;68;20299;-78
2021/11/07 03:18:40;;;;;;;15.45;9.06;;;;;;;3.86;94.37;100021.34;2328813;68;20765;-78
2021/11/07 03:21:42;;;;;;;17.46;9.41;;;;;;;3.88;94.24;100022.25;2329265;68;20384;-78
2021/11/07 03:24:52;;;;;;;18.04;9.15;;;;;;;3.86;94.11;100028.19;2328645;68;20360;-78
2021/11/07 03:27:55;;;;;;;14.45;9.06;;;;;;;3.83;94.17;100040.91;2327705;68;20330;-78
2021/11/07 03:34:05;;;;;;;13.82;8.64;;;;;;;3.85;94.27;100029.00;2330728;68;20295;-78
2021/11/07 03:37:09;;;;;;;16.31;8.73;;;;;;;3.84;94.23;100017.84;2329343;68;21094;-78
2021/11/07 03:40:12;;;;;;;17.13;9.02;;;;;;;3.87;94.40;100009.38;2330102;68;20347;-78
2021/11/07 03:43:29;;;;;;;17.27;9.30;;;;;;;3.90;94.43;100000.06;2328123;68;20409;-78
2021/11/07 03:46:33;;;;;;;17.85;9.41;;;;;;;3.92;94.31;99988.13;2329138;68;20302;-77
2021/11/07 03:49:38;;;;;;;15.70;9.15;;;;;;;3.93;94.30;99973.59;2329101;68;20412;-78
2021/11/07 03:52:41;;;;;;;16.38;9.11;;;;;;;3.92;94.22;99980.44;2330030;68;20882;-78
2021/11/07 03:55:44;;;;;;;13.99;8.82;;;;;;;3.92;94.30;99979.56;2327108;68;20342;-78
2021/11/07 03:58:46;;;;;;;17.96;9.48;;;;;;;3.92;94.22;99952.16;2328985;68;20305;-78
2021/11/07 04:01:50;;;;;;;16.08;9.15;;;;;;;3.90;94.04;99953.81;2327986;68;20648;-78
2021/11/07 04:04:53;;;;;;;14.69;8.74;;;;;;;3.88;93.90;99952.91;2326286;68;20319;-78
2021/11/07 04:07:56;;;;;;;17.16;8.59;;;;;;;3.88;93.84;99957.16;2326797;68;20393;-77
2021/11/07 04:10:59;;;;;;;14.73;7.89;;;;;;;3.85;93.76;99973.38;2326236;68;20291;-78
2021/11/07 04:14:03;;;;;;;17.56;8.64;;;;;;;3.84;93.81;99975.88;2325986;68;21121;-78
2021/11/07 04:17:07;;;;;;;15.07;8.29;;;;;;;3.85;94.06;99983.63;2326323;68;20279;-78
2021/11/07 04:20:11;;;;;;;15.70;8.19;;;;;;;3.88;94.38;99977.72;2326938;68;20282;-78
2021/11/07 04:23:14;;;;;;;14.09;8.80;;;;;;;3.97;94.65;99977.16;2329133;68;20319;-78
2021/11/07 04:26:17;;;;;;;16.42;8.82;;;;;;;4.01;94.68;99966.13;2328508;68;21030;-78
2021/11/07 04:29:20;;;;;;;15.19;8.36;;;;;;;4.04;94.76;99955.94;2327930;68;20721;-78
2021/11/07 04:32:23;;;;;;;16.01;8.96;;;;;;;4.08;94.79;99966.34;2326748;68;20290;-78
2021/11/07 04:35:25;;;;;;;14.89;8.86;;;;;;;4.11;94.71;99965.56;2322847;68;20315;-78
2021/11/07 04:38:28;;;;;;;17.40;9.63;;;;;;;4.11;94.71;99970.72;2327350;68;20283;-78
2021/11/07 04:41:30;;;;;;;16.36;9.39;;;;;;;4.14;94.77;99968.28;2327684;68;20366;-78
2021/11/07 04:44:33;;;;;;;17.58;9.15;;;;;;;4.19;94.84;99953.84;2326346;68;20275;-78
2021/11/07 04:47:36;;;;;;;15.73;10.07;;;;;;;4.23;94.74;99946.28;2323495;68;20363;-78
2021/11/07 04:50:40;;;;;;;18.45;10.48;;;;;;;4.27;94.60;99936.06;2314890;68;20287;-78
2021/11/07 04:53:45;;;;;;;17.60;9.51;;;;;;;4.31;94.61;99915.66;2328685;68;20375;-78
2021/11/07 04:56:48;;;;;;;18.11;9.70;;;;;;;4.34;94.64;99910.63;2326796;68;20326;-78
2021/11/07 04:59:51;;;;;;;17.55;10.24;;;;;;;4.39;94.55;99911.59;2326454;68;20392;-78
2021/11/07 05:02:53;;;;;;;18.83;9.77;;;;;;;4.42;94.27;99900.53;2327632;68;20660;-78
2021/11/07 05:05:56;;;;;;;18.81;10.21;;;;;;;4.44;94.18;99891.16;2329187;68;20906;-78
2021/11/07 05:08:59;;;;;;;16.46;9.96;;;;;;;4.45;94.11;99893.78;2328310;68;20291;-78
2021/11/07 05:12:02;;;;;;;16.34;9.75;;;;;;;4.49;94.03;99887.03;2327067;68;20311;-78
2021/11/07 05:15:06;;;;;;;16.65;9.98;;;;;;;4.51;93.87;99890.53;2326555;68;20306;-78
2021/11/07 05:18:08;;;;;;;17.16;9.94;;;;;;;4.52;93.96;99885.41;2326921;68;20736;-78
2021/11/07 05:21:11;;;;;;;16.61;9.90;;;;;;;4.58;93.93;99878.69;2328760;68;20271;-78
2021/11/07 05:24:14;;;;;;;17.24;10.45;;;;;;;4.59;93.83;99857.28;2328184;68;20354;-78
2021/11/07 05:27:17;;;;;;;15.46;9.61;;;;;;;4.62;93.78;99852.22;2327196;68;20303;-78
2021/11/07 05:30:20;;;;;;;13.71;8.80;;;;;;;4.66;93.71;99849.75;2326642;68;20279;-78
2021/11/07 05:33:22;;;;;;;16.13;9.27;;;;;;;4.68;93.52;99848.13;2327302;68;20315;-78
2021/11/07 05:36:25;;;;;;;15.38;9.70;;;;;;;4.71;93.50;99853.34;2327332;68;20344;-78
2021/11/07 05:39:28;;;;;;;13.66;9.52;;;;;;;4.73;93.33;99838.81;2325907;68;20355;-78
2021/11/07 05:42:32;;;;;;;13.66;8.79;;;;;;;4.75;93.34;99831.16;2327835;68;20409;-78
2021/11/07 05:45:35;;;;;;;14.71;9.46;;;;;;;4.76;93.43;99831.19;2326635;68;20303;-78
2021/11/07 05:48:40;;;;;;;13.79;8.40;;;;;;;4.81;93.39;99833.88;2327659;68;20360;-78
2021/11/07 05:51:43;;;;;;;13.76;8.38;;;;;;;4.85;93.24;99831.44;2328512;68;20318;-78
2021/11/07 05:54:47;;;;;;;14.05;8.95;;;;;;;4.88;93.16;99822.91;2328160;68;21087;-78
2021/11/07 05:57:49;;;;;;;14.64;8.38;;;;;;;4.91;93.07;99822.13;2325653;68;20328;-78
2021/11/07 06:00:52;;;;;;;14.14;9.21;;;;;;;4.94;92.98;99830.78;2327029;68;20295;-78
2021/11/07 06:03:55;;;;;;;12.09;8.40;;;;;;;4.99;92.87;99830.88;2326377;68;20826;-78
2021/11/07 06:06:57;;;;;;;14.94;9.27;;;;;;;5.00;92.79;99822.34;2326935;68;20434;-78
2021/11/07 06:10:00;;;;;;;16.84;8.29;;;;;;;5.03;92.83;99814.72;2327829;68;20303;-78
2021/11/07 06:13:03;;;;;;;14.98;9.45;;;;;;;5.02;92.70;99795.78;2327578;68;20887;-78
2021/11/07 06:16:06;;;;;;;12.56;8.52;;;;;;;5.04;92.68;99795.88;2326884;68;20294;-78
2021/11/07 06:19:09;;;;;;;13.81;8.84;;;;;;;5.04;92.66;99786.44;2327984;68;20445;-78
2021/11/07 06:22:12;;;;;;;15.26;8.54;;;;;;;5.07;92.66;99786.50;2327691;68;20309;-78
2021/11/07 06:25:14;;;;;;;10.66;7.18;;;;;;;5.09;92.64;99786.53;2326340;68;20312;-78
2021/11/07 06:28:17;;;;;;;11.81;8.01;;;;;;;5.09;92.53;99776.25;2325857;68;20299;-78
2021/11/07 06:31:23;;;;;;;11.49;7.13;;;;;;;5.09;92.54;99774.53;2327759;68;20338;-79
2021/11/07 06:34:27;;;;;;;8.86;6.74;;;;;;;5.12;92.55;99779.75;2325432;68;21001;-78
2021/11/07 06:37:30;;;;;;;9.48;6.47;;;;;;;5.15;92.43;99778.94;2326708;68;20313;-78
2021/11/07 06:40:34;;;;;;;8.32;6.00;;;;;;;5.16;92.45;99781.56;2327244;68;20429;-78
2021/11/07 06:43:37;;;;;;;8.69;5.91;;;;;;;5.18;92.25;99763.56;2327310;68;20802;-78
2021/11/07 06:46:41;;;;;;;9.27;6.36;;;;;;;5.19;92.17;99778.19;2326911;68;20803;-78
2021/11/07 06:49:44;;;;;;;11.10;6.95;;;;;;;5.18;91.85;99789.31;2327008;68;20305;-78
2021/11/07 06:52:47;;;;;;;10.86;6.45;;;;;;;5.19;91.82;99790.19;2328116;68;20403;-78
2021/11/07 06:55:50;;;;;;;8.43;6.59;;;;;;;5.22;91.82;99772.25;2331785;68;20318;-78
2021/11/07 06:58:56;;;;;;;8.59;6.43;;;;;;;5.23;91.68;99784.31;2327109;68;20377;-78
2021/11/07 07:02:14;;;;;;;9.21;5.99;;;;;;;5.24;91.51;99791.19;2326545;68;20424;-80
2021/11/07 07:05:30;;;;;;;8.27;5.82;;;;;;;5.22;91.45;99786.00;2322401;68;20291;-78
2021/11/07 07:08:58;;;;;;;7.97;5.65;;;;;;;5.26;91.60;99798.09;2325933;68;20376;-77
2021/11/07 07:15:13;;;;;;;7.96;5.79;;;;;;;5.30;91.25;99789.59;2328410;68;20333;-79
2021/11/07 07:18:26;;;;;;;6.10;5.38;;;;;;;5.30;91.10;99788.75;2327309;68;20279;-79
2021/11/07 07:34:08;;;;;;;7.65;5.53;;;;;;;5.38;90.95;99788.06;2325107;68;20295;-78
2021/11/07 07:37:15;;;;;;;7.49;4.35;;;;;;;5.42;91.01;99773.56;2324416;68;20783;-78
2021/11/07 07:40:20;;;;;;;6.88;4.45;;;;;;;5.46;90.96;99762.50;2323403;68;20267;-78
2021/11/07 07:43:25;;;;;;;7.24;4.44;;;;;;;5.46;90.89;99755.66;2324021;68;20295;-78
2021/11/07 07:46:29;;;;;;;6.18;4.19;;;;;;;5.47;91.00;99759.97;2319678;68;20309;-77
2021/11/07 07:49:32;;;;;;;6.54;4.93;;;;;;;5.49;91.26;99767.72;2308477;68;20350;-77
2021/11/07 07:52:35;;;;;;;7.15;4.13;;;;;;;5.51;91.47;99771.19;2323433;68;20454;-77
2021/11/07 07:55:39;;;;;;;6.88;4.39;;;;;;;5.52;91.73;99782.34;2324555;68;20292;-78
2021/11/07 07:58:42;;;;;;;5.19;3.76;;;;;;;5.56;91.98;99784.16;2324269;68;20630;-78
2021/11/07 08:01:45;;;;;;;5.29;4.00;;;;;;;5.63;92.23;99796.34;2324086;68;20319;-78
2021/11/07 08:04:49;;;;;;;5.29;3.89;;;;;;;5.66;92.30;99802.44;2325459;68;20751;-78
2021/11/07 08:07:51;;;;;;;5.00;4.34;;;;;;;5.66;92.52;99791.25;2323514;68;20306;-78
2021/11/07 08:10:54;;;;;;;7.43;4.01;;;;;;;5.71;92.73;99769.03;2320445;68;20602;-78
2021/11/07 08:13:57;;;;;;;4.32;3.89;;;;;;;5.69;92.49;99763.00;2325669;68;20287;-78
2021/11/07 08:17:00;;;;;;;8.54;4.26;;;;;;;5.65;92.72;99758.63;2326772;68;20510;-78
2021/11/07 08:20:06;;;;;;;5.99;4.11;;;;;;;5.65;92.96;99774.06;2326217;68;20311;-78
2021/11/07 08:23:09;;;;;;;4.51;3.80;;;;;;;5.66;93.10;99786.13;2330186;68;20279;-78
2021/11/07 08:26:13;;;;;;;6.51;3.80;;;;;;;5.68;93.56;99766.41;2324686;68;20287;-78
2021/11/07 08:29:17;;;;;;;4.20;3.80;;;;;;;5.71;93.60;99766.47;2326996;68;20721;-78
2021/11/07 08:32:20;;;;;;;3.71;3.36;;;;;;;5.73;93.61;99770.81;2323683;68;20816;-78
2021/11/07 08:35:24;;;;;;;4.09;3.79;;;;;;;5.75;93.78;99747.69;2324741;68;20301;-77
2021/11/07 08:38:32;;;;;;;3.79;3.49;;;;;;;5.79;93.98;99764.94;2317901;68;20335;-77
2021/11/07 08:41:46;;;;;;;3.56;3.26;;;;;;;5.87;93.97;99772.81;2323491;68;20384;-76
2021/11/07 09:01:36;;;;;;;2.92;2.72;;;;;;;5.95;93.79;99771.31;2323165;68;20347;-76
2021/11/07 09:07:59;;;;;;;3.50;2.59;;;;;;;5.96;94.09;99786.78;2322040;68;21554;-75
2021/11/07 09:11:05;;;;;;;3.06;2.76;;;;;;;6.02;94.32;99789.50;2322883;68;20294;-76
2021/11/07 09:14:07;;;;;;;3.05;2.80;;;;;;;6.03;94.13;99788.66;2322673;68;20767;-76
2021/11/07 09:17:13;;;;;;;6.10;2.80;;;;;;;6.11;94.42;99773.34;2322339;68;20283;-77
2021/11/07 09:20:27;;;;;;;2.75;2.38;;;;;;;6.14;94.49;99739.88;2322873;68;20388;-77
2021/11/07 09:23:56;;;;;;;4.07;2.15;;;;;;;6.17;94.59;99713.28;2322768;68;20308;-76
2021/11/07 09:26:55;;;;;;;2.76;2.16;;;;;;;6.18;94.56;99708.16;2323974;68;20797;-79
2021/11/07 09:30:12;;;;;;;2.80;2.21;;;;;;;6.25;94.75;99704.84;2319339;68;20898;-77
2021/11/07 09:33:24;;;;;;;2.86;2.25;;;;;;;6.31;94.82;99707.56;2330044;68;20275;-78
2021/11/07 09:36:31;;;;;;;2.44;2.24;;;;;;;6.30;94.65;99715.25;2323817;68;20390;-78
2021/11/07 09:39:48;;;;;;;2.90;2.00;;;;;;;6.31;94.72;99717.00;2319552;68;20291;-78
2021/11/07 09:49:43;;;;;;;2.60;1.69;;;;;;;6.45;94.98;99737.84;2324546;68;20316;-78
2021/11/07 09:52:51;;;;;;;1.77;1.67;;;;;;;6.54;94.97;99751.78;2319482;68;20295;-78
2021/11/07 09:55:54;;;;;;;1.77;1.60;;;;;;;6.65;94.83;99754.56;2324355;68;20855;-78
2021/11/07 09:58:59;;;;;;;2.97;1.99;;;;;;;6.74;94.87;99746.09;2319774;68;20147;-78
2021/11/07 10:02:02;;;;;;;1.66;1.49;;;;;;;6.79;94.63;99736.72;2323774;68;21076;-78
2021/11/07 10:05:09;;;;;;;1.83;1.49;;;;;;;6.82;94.47;99723.84;2324146;68;20771;-78
2021/11/07 10:08:12;;;;;;;1.50;1.40;;;;;;;6.82;94.26;99740.22;2324307;68;20394;-78
2021/11/07 10:11:15;;;;;;;1.98;1.33;;;;;;;6.86;94.22;99725.66;2322819;68;20295;-78
2021/11/07 10:14:19;;;;;;;2.99;2.14;;;;;;;6.94;94.15;99716.31;2323496;68;20295;-77
2021/11/07 10:17:33;;;;;;;4.59;4.19;;;;;;;6.96;93.96;99723.22;2324655;68;20659;-78
2021/11/07 10:20:49;;;;;;;2.79;1.69;;;;;;;6.99;93.83;99730.16;2324481;68;20370;-78
2021/11/07 10:24:07;;;;;;;2.04;1.91;;;;;;;6.98;93.92;99731.84;2323948;68;20330;-78
2021/11/07 10:27:13;;;;;;;5.26;4.73;;;;;;;6.99;93.86;99755.97;2323615;68;20399;-78
2021/11/07 10:30:27;;;;;;;6.28;5.20;;;;;;;7.05;93.89;99747.47;2323958;68;20636;-78
2021/11/07 10:40:37;;;;;;;1.70;1.50;;;;;;;6.95;93.50;99733.53;2323968;68;20388;-78
2021/11/07 10:44:09;;;;;;;1.58;1.48;;;;;;;6.93;93.76;99733.50;2322797;68;20805;-77
2021/11/07 10:54:21;;;;;;;2.17;1.23;;;;;;;6.97;94.18;99732.72;2303506;68;20951;-78
2021/11/07 10:57:27;;;;;;;1.64;1.30;;;;;;;7.03;94.27;99733.66;2323181;68;20351;-77
2021/11/07 11:00:32;;;;;;;1.35;1.25;;;;;;;7.04;94.32;99710.44;2322647;68;20718;-78
2021/11/07 11:03:47;;;;;;;1.50;1.40;;;;;;;7.08;94.29;99704.47;2323063;68;20332;-78
2021/11/07 11:06:54;;;;;;;2.16;1.34;;;;;;;7.08;94.10;99701.03;2322252;68;20351;-78
2021/11/07 11:10:27;;;;;;;2.04;1.40;;;;;;;7.09;94.35;99697.59;2321319;68;20793;-78
2021/11/07 11:13:43;;;;;;;1.56;1.46;;;;;;;7.12;94.27;99693.34;2326427;68;20309;-77
2021/11/07 11:20:27;;;;;;;2.58;1.30;;;;;;;7.16;94.63;99669.28;2322097;68;20295;-77
2021/11/07 11:23:44;;;;;;;1.81;1.23;;;;;;;7.19;94.64;99682.28;2321312;68;20303;-78
2021/11/07 11:27:17;;;;;;;2.45;1.01;;;;;;;7.21;94.54;99690.91;2322393;68;20264;-78
2021/11/07 11:33:42;;;;;;;1.24;1.20;;;;;;;7.27;94.53;99690.09;2323150;68;20361;-78
2021/11/07 11:36:51;;;;;;;1.19;1.00;;;;;;;7.31;94.54;99671.22;2304027;68;20299;-78
2021/11/07 11:40:24;;;;;;;1.51;0.98;;;;;;;7.33;94.44;99671.22;2322064;68;20298;-78
2021/11/07 11:47:31;;;;;;;2.59;0.85;;;;;;;7.41;94.53;99685.13;2316580;68;20779;-78
2021/11/07 12:01:11;;;;;;;4.80;3.08;;;;;;;7.58;94.64;99660.38;2324598;68;20283;-77
2021/11/07 12:04:21;;;;;;;1.16;1.10;;;;;;;7.62;94.67;99645.78;2323273;68;20677;-78
2021/11/07 12:07:26;;;;;;;1.89;1.74;;;;;;;7.60;94.41;99645.75;2321827;68;20407;-78
2021/11/07 12:10:35;;;;;;;2.95;2.75;;;;;;;7.61;94.65;99642.31;2321952;68;20297;-78
2021/11/07 12:13:48;;;;;;;0.80;0.80;;;;;;;7.65;94.63;99646.66;2321379;68;20742;-78
2021/11/07 12:17:01;;;;;;;0.80;0.80;;;;;;;7.69;94.77;99644.97;2321226;68;20303;-78
2021/11/07 12:20:26;;;;;;;0.77;0.71;;;;;;;7.76;94.99;99639.03;2326221;68;20332;-78
2021/11/07 12:23:33;;;;;;;0.75;0.75;;;;;;;7.79;94.99;99639.94;2321832;68;20283;-78
2021/11/07 12:26:35;;;;;;;3.36;0.80;;;;;;;7.87;94.97;99645.19;2318082;68;20291;-78
2021/11/07 12:29:40;;;;;;;0.95;0.82;;;;;;;7.89;94.83;99639.16;2323073;68;20290;-78
2021/11/07 12:32:46;;;;;;;0.70;0.70;;;;;;;7.94;94.85;99628.03;2321804;68;20296;-78
2021/11/07 12:36:15;;;;;;;0.80;0.70;;;;;;;7.98;94.70;99624.63;2326965;68;20354;-78
2021/11/07 12:43:02;;;;;;;;;;;;;;;8.05;94.47;99616.91;2323123;68;20216;-78
2021/11/07 12:49:30;;;;;;;3.19;2.63;;;;;;;8.08;94.26;99623.88;2322606;68;20291;-78
2021/11/07 12:52:52;;;;;;;1.29;0.64;;;;;;;8.10;94.44;99620.44;2309983;68;20916;-78
2021/11/07 12:56:27;;;;;;;0.51;0.51;;;;;;;8.13;94.30;99611.84;2324978;68;20440;-79
2021/11/07 12:59:50;;;;;;;0.43;0.43;;;;;;;8.07;93.91;99628.13;2305510;68;20503;-79
2021/11/07 13:06:19;;;;;;;0.71;0.60;;;;;;;8.06;94.39;99621.22;2324944;68;20401;-76
2021/11/07 13:09:31;;;;;;;1.56;0.60;;;;;;;8.09;94.37;99617.84;2323910;68;21173;-78
2021/11/07 13:12:40;;;;;;;0.49;0.49;;;;;;;8.12;94.12;99617.84;2323064;68;20325;-77
2021/11/07 13:18:59;;;;;;;1.23;0.55;;;;;;;8.16;94.01;99630.81;2323480;68;20139;-77
2021/11/07 13:22:26;;;;;;;1.33;0.55;;;;;;;8.17;93.82;99629.09;2321308;68;20295;-77
2021/11/07 13:32:30;;;;;;;0.95;0.60;;;;;;;8.16;93.68;99607.53;2322701;68;21177;-77
2021/11/07 13:35:32;;;;;;;0.61;0.60;;;;;;;8.17;93.76;99605.81;2322846;68;20299;-77
2021/11/07 13:38:59;;;;;;;0.50;0.50;;;;;;;8.17;93.78;99624.78;2323442;68;21072;-76
2021/11/07 13:42:13;;;;;;;0.57;0.50;;;;;;;8.19;93.86;99615.31;2323449;68;20353;-77
2021/11/07 13:45:31;;;;;;;1.41;1.21;;;;;;;8.17;93.94;99613.59;2321992;68;20291;-77
2021/11/07 13:48:35;;;;;;;0.80;0.59;;;;;;;8.22;94.06;99627.41;2322834;68;20308;-77
2021/11/07 13:51:52;;;;;;;1.23;0.47;;;;;;;8.19;93.97;99620.50;2322422;68;20146;-77
2021/11/07 13:54:54;;;;;;;0.76;0.56;;;;;;;8.17;94.02;99619.63;2322618;68;20314;-77
2021/11/07 13:58:13;;;;;;;0.81;0.50;;;;;;;8.18;94.14;99613.59;2321967;68;20328;-76
2021/11/07 14:01:17;;;;;;;0.60;0.60;;;;;;;8.20;94.29;99600.66;2322657;68;20290;-77
2021/11/07 14:04:20;;;;;;;1.14;0.70;;;;;;;8.20;94.28;99595.50;2322145;68;20159;-77
2021/11/07 14:07:29;;;;;;;1.20;0.64;;;;;;;8.17;94.22;99596.34;2323410;68;20344;-77
2021/11/07 14:10:38;;;;;;;2.36;0.75;;;;;;;8.17;94.53;99582.53;2323415;68;20324;-77
2021/11/07 14:13:49;;;;;;;0.64;0.60;;;;;;;8.20;94.65;99590.31;2323905;68;20543;-77
2021/11/07 14:16:58;;;;;;;0.60;0.59;;;;;;;8.20;94.69;99598.09;2323508;68;20320;-78
2021/11/07 14:20:01;;;;;;;1.04;0.60;;;;;;;8.21;94.84;99599.81;2323544;68;20437;-78
2021/11/07 14:23:20;;;;;;;0.94;0.70;;;;;;;8.22;94.83;99596.38;2322600;68;20338;-78
2021/11/07 14:26:31;;;;;;;1.55;0.57;;;;;;;8.24;94.88;99605.00;2323684;68;20973;-78
2021/11/07 14:29:38;;;;;;;0.50;0.50;;;;;;;8.24;94.87;99609.31;2322896;68;20286;-77
2021/11/07 14:32:44;;;;;;;0.99;0.54;;;;;;;8.25;95.03;99611.03;2323661;68;20295;-78
2021/11/07 14:35:49;;;;;;;0.84;0.70;;;;;;;8.27;95.09;99602.47;2325314;68;20641;-78
2021/11/07 14:45:56;;;;;;;1.51;0.47;;;;;;;8.29;95.40;99600.75;2324201;68;20283;-78
2021/11/07 14:49:24;;;;;;;0.55;0.49;;;;;;;8.31;95.41;99599.06;2324657;68;21182;-77
2021/11/07 14:52:49;;;;;;;0.60;0.60;;;;;;;8.31;95.27;99600.78;2325066;68;20432;-78
2021/11/07 15:02:50;;;;;;;0.66;0.56;;;;;;;8.30;95.56;99612.84;2323278;68;20388;-77
2021/11/07 15:10:09;;;;;;;0.57;0.57;;;;;;;8.32;95.51;99607.69;2314356;68;20746;-77
2021/11/07 15:16:44;;;;;;;1.81;0.63;;;;;;;8.33;95.43;99599.94;2324905;68;20295;-77
2021/11/07 15:20:24;;;;;;;0.51;0.51;;;;;;;8.32;95.31;99605.97;2310287;68;20283;-78
2021/11/07 15:23:34;;;;;;;0.71;0.60;;;;;;;8.34;95.51;99616.34;2324483;68;20206;-77
2021/11/07 15:26:43;;;;;;;1.34;0.50;;;;;;;8.34;95.47;99617.22;2323167;68;20303;-77
2021/11/07 15:29:56;;;;;;;0.68;0.60;;;;;;;8.36;95.47;99620.69;2323389;68;20766;-77
2021/11/07 15:33:11;;;;;;;0.57;0.51;;;;;;;8.33;95.43;99623.22;2328743;68;20427;-77
2021/11/07 15:36:28;;;;;;;0.86;0.65;;;;;;;8.33;95.59;99607.69;2323546;68;20291;-77
2021/11/07 15:39:33;;;;;;;3.00;0.80;;;;;;;8.31;95.49;99606.81;2323459;68;21159;-77
2021/11/07 15:42:42;;;;;;;1.29;0.71;;;;;;;8.30;95.71;99594.72;2322655;68;20444;-76
2021/11/07 15:49:04;;;;;;;1.81;0.75;;;;;;;8.32;95.67;99597.34;2323352;68;20179;-76
2021/11/07 15:55:44;;;;;;;1.33;0.79;;;;;;;8.33;95.56;99618.03;2323444;68;20340;-76
2021/11/07 15:59:01;;;;;;;1.51;0.82;;;;;;;8.33;95.70;99627.53;2323249;68;21023;-77
2021/11/07 16:02:14;;;;;;;1.33;0.75;;;;;;;8.33;95.67;99630.97;2323802;68;21207;-77
2021/11/07 16:09:30;;;;;;;1.05;0.95;;;;;;;8.32;95.69;99631.81;2323665;68;20744;-76
2021/11/07 16:12:15;;;;;;;1.14;1.04;;;;;;;8.31;95.89;99650.78;2320799;68;20331;-76
2021/11/07 16:18:26;;;;;;;1.83;1.31;;;;;;;8.28;96.18;99658.53;2323308;68;20307;-74
2021/11/07 16:21:30;;;;;;;4.18;1.41;;;;;;;8.28;96.41;99653.34;2323784;68;20355;-76
2021/11/07 16:24:33;;;;;;;1.84;1.51;;;;;;;8.31;96.43;99643.03;2323198;68;20352;-75
2021/11/07 16:27:36;;;;;;;4.14;1.74;;;;;;;8.33;96.32;99650.81;2317995;68;20306;-75
2021/11/07 16:30:39;;;;;;;2.33;1.64;;;;;;;8.34;96.34;99657.75;2324692;68;20279;-75
2021/11/07 16:33:46;;;;;;;1.46;1.36;;;;;;;8.36;96.29;99650.84;2325270;68;21072;-75
2021/11/07 16:36:49;;;;;;;1.51;1.41;;;;;;;8.36;96.15;99641.38;2323764;68;20881;-74
2021/11/07 16:43:01;;;;;;;2.17;1.30;;;;;;;8.35;96.21;99646.53;2322223;68;20356;-75
2021/11/07 16:46:08;;;;;;;2.61;1.84;;;;;;;8.34;96.20;99652.56;2319701;68;20672;-75
2021/11/07 16:49:12;;;;;;;1.81;1.70;;;;;;;8.33;96.23;99656.84;2322807;68;21052;-75
2021/11/07 16:52:21;;;;;;;2.64;1.66;;;;;;;8.35;96.17;99662.06;2322609;68;20860;-75
2021/11/07 16:55:52;;;;;;;2.00;1.54;;;;;;;8.33;96.10;99661.16;2323457;68;20334;-75
2021/11/07 16:58:56;;;;;;;2.66;1.69;;;;;;;8.32;96.10;99667.19;2323551;68;20705;-75
2021/11/07 17:02:14;;;;;;;2.09;1.63;;;;;;;8.32;96.16;99655.13;2323483;68;20400;-75
2021/11/07 17:08:28;;;;;;;3.35;1.88;;;;;;;8.29;95.97;99662.84;2323471;68;20176;-75
2021/11/07 17:11:33;;;;;;;3.14;1.84;;;;;;;8.27;95.84;99658.53;2323689;68;20279;-75
2021/11/07 17:14:37;;;;;;;2.76;2.00;;;;;;;8.22;95.79;99665.34;2323583;68;20199;-75
2021/11/07 17:17:45;;;;;;;3.35;2.33;;;;;;;8.19;95.82;99661.03;2323143;68;20303;-75
2021/11/07 17:24:18;;;;;;;2.58;1.86;;;;;;;8.13;96.02;99663.56;2313207;68;20332;-75
2021/11/07 17:27:31;;;;;;;4.44;1.83;;;;;;;8.12;96.01;99654.06;2322447;68;20468;-75
2021/11/07 17:30:39;;;;;;;2.79;1.86;;;;;;;8.08;95.87;99649.72;2322664;68;20275;-75
2021/11/07 17:36:49;;;;;;;2.95;1.83;;;;;;;7.96;95.71;99653.03;2322157;68;20195;-75